Time;durP1;ratioP1;P1;durP2;ratioP2;P2;SDS_P1;SDS_P2;PMS_P1;PMS_P2;Temp;Humidity;BMP_temperature;BMP_pressure;BME280_temperature;BME280_humidity;BME280_pressure;Samples;Min_cycle;Max_cycle;Signal;HPM_P1;HPM_P2
2021/11/01 00:02:14;;;;;;;13.13;5.33;;;10.20;99.90;;;;;;5057927;28;20803;-59
2021/11/01 00:04:44;;;;;;;21.73;6.47;;;10.10;99.90;;;;;;5058031;28;20466;-56
2021/11/01 00:07:12;;;;;;;12.70;4.63;;;10.10;99.90;;;;;;5057064;28;20526;-59
2021/11/01 00:09:40;;;;;;;12.83;4.67;;;10.10;99.90;;;;;;5057301;28;20463;-59
2021/11/01 00:12:07;;;;;;;13.17;5.30;;;10.10;99.90;;;;;;5057792;28;20516;-59
2021/11/01 00:14:36;;;;;;;14.83;6.67;;;10.10;99.90;;;;;;5056181;28;20466;-60
2021/11/01 00:17:07;;;;;;;11.20;4.57;;;10.10;99.90;;;;;;5058092;28;20459;-59
2021/11/01 00:19:36;;;;;;;20.80;5.83;;;10.10;99.90;;;;;;5057541;28;20795;-59
2021/11/01 00:22:08;;;;;;;22.47;8.60;;;10.00;99.90;;;;;;5057848;28;20473;-59
2021/11/01 00:24:35;;;;;;;16.90;5.13;;;10.00;99.90;;;;;;5057894;28;20567;-59
2021/11/01 00:27:04;;;;;;;13.00;4.93;;;9.90;99.90;;;;;;5057623;28;20490;-59
2021/11/01 00:29:32;;;;;;;11.93;4.90;;;9.90;99.90;;;;;;5056791;28;20925;-58
2021/11/01 00:32:00;;;;;;;22.70;6.70;;;9.90;99.90;;;;;;5057618;28;20473;-56
2021/11/01 00:34:27;;;;;;;15.83;6.00;;;9.90;99.90;;;;;;5057323;28;20467;-57
2021/11/01 00:36:54;;;;;;;15.63;4.63;;;9.80;99.90;;;;;;5057566;28;20490;-58
2021/11/01 00:39:22;;;;;;;12.77;4.67;;;9.80;99.90;;;;;;5057193;28;20525;-60
2021/11/01 00:41:49;;;;;;;14.17;4.57;;;9.80;99.90;;;;;;5057076;28;20466;-59
2021/11/01 00:44:16;;;;;;;16.90;5.90;;;9.80;99.90;;;;;;5057176;28;20524;-59
2021/11/01 00:46:43;;;;;;;11.73;5.53;;;9.80;99.90;;;;;;5057582;28;20512;-59
2021/11/01 00:49:17;;;;;;;13.17;4.50;;;9.80;99.90;;;;;;5056942;28;20478;-59
2021/11/01 00:51:44;;;;;;;14.37;4.80;;;9.70;99.90;;;;;;5057121;28;20908;-60
2021/11/01 00:54:12;;;;;;;16.53;5.00;;;9.70;99.90;;;;;;5056851;28;20462;-59
2021/11/01 00:56:42;;;;;;;16.70;4.30;;;9.70;99.90;;;;;;5057328;28;20481;-59
2021/11/01 00:59:09;;;;;;;16.63;4.60;;;9.60;99.90;;;;;;5057222;28;20461;-58
2021/11/01 01:01:40;;;;;;;11.93;3.93;;;9.60;99.90;;;;;;5056972;28;20458;-59
2021/11/01 01:04:07;;;;;;;8.20;3.60;;;9.60;99.90;;;;;;5057034;28;20462;-59
2021/11/01 01:06:35;;;;;;;11.90;3.70;;;9.60;99.90;;;;;;5056527;28;20482;-59
2021/11/01 01:09:04;;;;;;;17.37;4.77;;;9.50;99.90;;;;;;5056928;28;20490;-59
2021/11/01 01:11:31;;;;;;;10.40;3.90;;;9.50;99.90;;;;;;5056594;28;20467;-58
2021/11/01 01:14:00;;;;;;;15.70;5.03;;;9.50;99.90;;;;;;5057024;28;20462;-59
2021/11/01 01:16:28;;;;;;;13.87;5.67;;;9.50;99.90;;;;;;5057037;28;20682;-57
2021/11/01 01:19:02;;;;;;;15.00;4.17;;;9.50;99.90;;;;;;5056510;28;20485;-57
2021/11/01 01:24:27;;;;;;;14.13;3.53;;;9.40;99.90;;;;;;5043460;28;20478;-54
2021/11/01 01:26:54;;;;;;;11.43;3.93;;;9.40;99.90;;;;;;5056816;28;20463;-57
2021/11/01 01:29:21;;;;;;;12.40;4.47;;;9.40;99.90;;;;;;5056446;28;20564;-58
2021/11/01 01:31:48;;;;;;;13.07;3.60;;;9.40;99.90;;;;;;5056821;28;20927;-59
2021/11/01 01:34:18;;;;;;;18.50;4.00;;;9.40;99.90;;;;;;5056492;28;20515;-54
2021/11/01 01:36:45;;;;;;;9.97;4.00;;;9.40;99.90;;;;;;5056692;28;20466;-58
2021/11/01 01:39:13;;;;;;;14.07;3.80;;;9.40;99.90;;;;;;5056318;28;20565;-59
2021/11/01 01:41:46;;;;;;;8.80;3.70;;;9.40;99.90;;;;;;5056663;28;20496;-57
2021/11/01 01:44:17;;;;;;;10.23;3.73;;;9.40;99.90;;;;;;5056466;28;20745;-59
2021/11/01 01:46:48;;;;;;;13.20;3.50;;;9.30;99.90;;;;;;5060172;28;20834;-58
2021/11/01 01:49:17;;;;;;;14.37;3.53;;;9.40;99.90;;;;;;5060028;28;20924;-59
2021/11/01 01:51:46;;;;;;;15.37;4.10;;;9.40;99.90;;;;;;5060500;28;20466;-59
2021/11/01 01:54:13;;;;;;;9.63;4.17;;;9.40;99.90;;;;;;5060372;28;20470;-59
2021/11/01 01:56:40;;;;;;;8.50;3.40;;;9.40;99.90;;;;;;5060760;28;20516;-59
2021/11/01 01:59:20;;;;;;;15.60;3.80;;;9.30;99.90;;;;;;5060343;28;20458;-59
2021/11/01 02:01:51;;;;;;;9.47;3.77;;;9.30;99.90;;;;;;5060521;28;20440;-59
2021/11/01 02:04:23;;;;;;;9.83;3.70;;;9.30;99.90;;;;;;5060399;28;20473;-59
2021/11/01 02:07:11;;;;;;;10.70;4.13;;;9.30;99.90;;;;;;5060064;28;20512;-59
2021/11/01 02:10:01;;;;;;;9.53;4.70;;;9.30;99.90;;;;;;5059732;28;20512;-59
2021/11/01 02:12:36;;;;;;;10.17;3.13;;;9.40;99.90;;;;;;5060037;28;20470;-59
2021/11/01 02:15:11;;;;;;;10.93;3.20;;;9.30;99.90;;;;;;5060234;28;20461;-59
2021/11/01 02:17:39;;;;;;;9.57;3.37;;;9.30;99.90;;;;;;5060090;28;20831;-59
2021/11/01 02:20:09;;;;;;;10.50;3.57;;;9.20;99.90;;;;;;5060470;28;20479;-59
2021/11/01 02:22:47;;;;;;;13.17;4.70;;;9.20;99.90;;;;;;5060318;28;20491;-59
2021/11/01 02:25:31;;;;;;;12.70;3.27;;;9.30;99.90;;;;;;5059519;28;20468;-57
2021/11/01 02:27:59;;;;;;;14.07;4.23;;;9.30;99.90;;;;;;5059682;28;20563;-58
2021/11/01 02:30:30;;;;;;;9.90;3.93;;;9.30;99.90;;;;;;5059867;28;20472;-59
2021/11/01 02:33:01;;;;;;;11.90;3.23;;;9.30;99.90;;;;;;5060324;28;20459;-59
2021/11/01 02:35:31;;;;;;;9.80;3.40;;;9.30;99.90;;;;;;5059849;28;20580;-59
2021/11/01 02:37:59;;;;;;;10.03;3.33;;;9.30;99.90;;;;;;5059674;28;20440;-59
2021/11/01 02:40:29;;;;;;;17.30;4.27;;;9.30;99.90;;;;;;5059876;28;20462;-60
2021/11/01 02:42:57;;;;;;;10.13;4.10;;;9.30;99.90;;;;;;5059991;28;20462;-59
2021/11/01 02:45:25;;;;;;;17.13;4.23;;;9.30;99.90;;;;;;5059472;28;20539;-59
2021/11/01 02:47:52;;;;;;;16.57;4.00;;;9.30;99.90;;;;;;5059547;28;20494;-59
2021/11/01 02:50:20;;;;;;;12.20;4.00;;;9.30;99.90;;;;;;5059591;28;20535;-58
2021/11/01 02:52:49;;;;;;;13.90;4.13;;;9.20;99.90;;;;;;5059143;28;20465;-59
2021/11/01 02:55:17;;;;;;;13.33;3.30;;;9.20;99.90;;;;;;5058840;28;20473;-59
2021/11/01 02:57:46;;;;;;;10.90;4.47;;;9.20;99.90;;;;;;5059061;28;20470;-55
2021/11/01 03:00:17;;;;;;;13.13;3.63;;;9.20;99.90;;;;;;5059162;28;20470;-58
2021/11/01 03:02:47;;;;;;;13.23;3.80;;;9.20;99.90;;;;;;5059606;28;20466;-58
2021/11/01 03:05:17;;;;;;;22.30;5.03;;;9.10;99.90;;;;;;5058945;28;20557;-58
2021/11/01 03:07:48;;;;;;;10.33;3.50;;;9.20;99.90;;;;;;5058977;28;21009;-58
2021/11/01 03:10:17;;;;;;;12.70;3.83;;;9.10;99.90;;;;;;5059472;28;20444;-57
2021/11/01 03:12:49;;;;;;;12.93;3.80;;;9.10;99.90;;;;;;5059345;28;20775;-59
2021/11/01 03:15:21;;;;;;;14.17;4.40;;;9.10;99.90;;;;;;5058898;28;20485;-59
2021/11/01 03:17:54;;;;;;;7.17;3.40;;;9.10;99.90;;;;;;5058895;28;20498;-59
2021/11/01 03:20:27;;;;;;;13.20;3.10;;;9.10;99.90;;;;;;5059249;28;20477;-58
2021/11/01 03:22:57;;;;;;;6.70;3.27;;;9.10;99.90;;;;;;5059359;28;20440;-59
2021/11/01 03:25:33;;;;;;;9.43;4.20;;;9.00;99.90;;;;;;5058517;28;20476;-58
2021/11/01 03:28:04;;;;;;;9.20;3.30;;;9.00;99.90;;;;;;5059075;28;20494;-58
2021/11/01 03:30:32;;;;;;;11.73;3.70;;;9.10;99.90;;;;;;5059201;28;20511;-56
2021/11/01 03:32:59;;;;;;;9.73;3.33;;;9.10;99.90;;;;;;5058802;28;20916;-58
2021/11/01 03:35:30;;;;;;;10.63;3.90;;;9.10;99.90;;;;;;5058371;28;20470;-57
2021/11/01 03:37:59;;;;;;;9.47;2.90;;;9.10;99.90;;;;;;5058362;28;20470;-59
2021/11/01 03:40:29;;;;;;;15.43;4.13;;;9.10;99.90;;;;;;5058641;28;20458;-58
2021/11/01 03:42:57;;;;;;;11.87;3.20;;;9.10;99.90;;;;;;5058673;28;20512;-57
2021/11/01 03:45:27;;;;;;;7.07;3.37;;;9.10;99.90;;;;;;5058672;28;20502;-59
2021/11/01 03:48:01;;;;;;;9.10;3.57;;;9.10;99.90;;;;;;5058224;28;20528;-60
2021/11/01 03:50:34;;;;;;;9.40;5.13;;;9.10;99.90;;;;;;5058559;28;20436;-58
2021/11/01 03:53:02;;;;;;;9.07;3.87;;;9.00;99.90;;;;;;5058525;28;20765;-59
2021/11/01 03:55:29;;;;;;;11.63;3.03;;;9.10;99.90;;;;;;5058330;28;20470;-59
2021/11/01 03:58:05;;;;;;;6.33;3.07;;;9.00;99.90;;;;;;5058142;28;20846;-59
2021/11/01 04:00:36;;;;;;;14.73;3.80;;;9.00;99.90;;;;;;5058158;28;20556;-59
2021/11/01 04:03:05;;;;;;;8.23;2.80;;;9.00;99.90;;;;;;5058314;28;20466;-59
2021/11/01 04:05:32;;;;;;;7.93;3.23;;;9.00;99.90;;;;;;5057508;28;20485;-56
2021/11/01 04:08:00;;;;;;;5.10;3.20;;;9.00;99.90;;;;;;5057441;28;20462;-56
2021/11/01 04:10:30;;;;;;;10.70;3.83;;;8.90;99.90;;;;;;5058492;28;20473;-58
2021/11/01 04:12:58;;;;;;;12.03;4.23;;;8.90;99.90;;;;;;5058054;28;20433;-54
2021/11/01 04:15:26;;;;;;;9.10;3.97;;;8.90;99.90;;;;;;5057622;28;20469;-59
2021/11/01 04:17:59;;;;;;;7.00;3.27;;;8.80;99.90;;;;;;5057787;28;20472;-58
2021/11/01 04:20:36;;;;;;;9.73;3.90;;;8.80;99.90;;;;;;5057567;28;20467;-59
2021/11/01 04:23:05;;;;;;;6.63;3.60;;;8.80;99.90;;;;;;5057862;28;20491;-58
2021/11/01 04:25:36;;;;;;;10.67;3.90;;;8.80;99.90;;;;;;5057666;28;20466;-59
2021/11/01 04:28:05;;;;;;;10.20;4.10;;;8.80;99.90;;;;;;5057697;28;20462;-55
2021/11/01 04:30:38;;;;;;;9.13;3.67;;;8.80;99.90;;;;;;5058141;28;20458;-59
2021/11/01 04:33:08;;;;;;;9.03;4.70;;;8.80;99.90;;;;;;5057558;28;20483;-59
2021/11/01 04:35:37;;;;;;;8.13;3.73;;;8.80;99.90;;;;;;5057309;28;20466;-59
2021/11/01 04:38:15;;;;;;;11.87;4.13;;;8.80;99.90;;;;;;5057722;28;20794;-59
2021/11/01 04:40:53;;;;;;;8.00;3.57;;;8.80;99.90;;;;;;5057881;28;20517;-56
2021/11/01 04:54:21;;;;;;;10.90;3.43;;;8.70;99.90;;;;;;5050943;28;20492;-58
2021/11/01 04:56:49;;;;;;;6.87;2.67;;;8.70;99.90;;;;;;5052694;28;20609;-59
2021/11/01 04:59:16;;;;;;;7.40;3.30;;;8.60;99.90;;;;;;5056397;28;20540;-57
2021/11/01 05:01:46;;;;;;;11.40;3.60;;;8.60;99.90;;;;;;5050424;28;20455;-58
2021/11/01 05:04:17;;;;;;;9.40;3.73;;;8.60;99.90;;;;;;5056880;28;20472;-57
2021/11/01 05:06:49;;;;;;;8.50;3.47;;;8.70;99.90;;;;;;5056851;28;20535;-58
2021/11/01 05:09:19;;;;;;;10.10;3.93;;;8.70;99.90;;;;;;5056663;28;20835;-58
2021/11/01 05:11:55;;;;;;;11.03;3.27;;;8.70;99.90;;;;;;5057329;28;20470;-57
2021/11/01 05:14:29;;;;;;;9.10;3.83;;;8.70;99.90;;;;;;5057190;28;20476;-59
2021/11/01 05:17:07;;;;;;;8.33;3.33;;;8.70;99.90;;;;;;5057431;28;20441;-58
2021/11/01 05:19:39;;;;;;;14.70;3.37;;;8.70;99.90;;;;;;5055708;28;20462;-58
2021/11/01 05:22:13;;;;;;;7.20;3.40;;;8.70;99.90;;;;;;5056888;28;20893;-59
2021/11/01 05:24:43;;;;;;;9.23;3.53;;;8.80;99.90;;;;;;5056994;28;20527;-57
2021/11/01 05:30:07;;;;;;;6.17;3.37;;;8.80;99.90;;;;;;5036672;28;20465;-56
2021/11/01 05:32:35;;;;;;;7.17;2.53;;;8.80;99.90;;;;;;5039985;28;20462;-58
2021/11/01 05:35:03;;;;;;;11.23;3.10;;;8.90;99.90;;;;;;5056745;28;20482;-58
2021/11/01 05:37:31;;;;;;;7.73;3.23;;;8.80;99.90;;;;;;5043320;28;20466;-57
2021/11/01 05:39:58;;;;;;;10.07;2.80;;;8.90;99.90;;;;;;5056109;28;20490;-58
2021/11/01 05:42:25;;;;;;;7.20;3.50;;;8.90;99.90;;;;;;5044578;28;20463;-57
2021/11/01 05:44:55;;;;;;;10.17;3.50;;;8.90;99.90;;;;;;5056762;28;20809;-58
2021/11/01 05:47:22;;;;;;;3.30;2.50;;;8.90;99.90;;;;;;5056176;28;20440;-58
2021/11/01 05:49:50;;;;;;;6.23;2.33;;;8.90;99.90;;;;;;5055859;28;20472;-58
2021/11/01 05:52:23;;;;;;;6.93;3.10;;;8.90;99.90;;;;;;5056450;28;20465;-58
2021/11/01 05:54:55;;;;;;;6.43;3.10;;;8.90;99.90;;;;;;5056780;28;20783;-58
2021/11/01 05:57:33;;;;;;;7.47;2.53;;;8.90;99.90;;;;;;5056340;28;20539;-57
2021/11/01 06:02:53;;;;;;;3.70;2.90;;;8.80;99.90;;;;;;5049387;28;20455;-58
2021/11/01 06:05:40;;;;;;;5.87;2.50;;;8.80;99.90;;;;;;5047600;28;20466;-57
2021/11/01 06:08:27;;;;;;;5.50;3.33;;;8.80;99.90;;;;;;5056512;28;20496;-58
2021/11/01 06:13:36;;;;;;;9.67;3.10;;;8.70;99.90;;;;;;5055679;28;20437;-58
2021/11/01 06:16:03;;;;;;;12.93;3.67;;;8.70;99.90;;;;;;5056311;28;20489;-58
2021/11/01 06:18:35;;;;;;;6.70;2.90;;;8.70;99.90;;;;;;5056075;28;20496;-58
2021/11/01 06:21:03;;;;;;;7.50;2.97;;;8.70;99.90;;;;;;5056603;28;20466;-58
2021/11/01 06:23:33;;;;;;;8.33;3.07;;;8.70;99.90;;;;;;5055820;28;20498;-60
2021/11/01 06:26:03;;;;;;;7.27;3.40;;;8.70;99.90;;;;;;5056705;28;20519;-58
2021/11/01 06:28:30;;;;;;;5.80;2.83;;;8.70;99.90;;;;;;5056011;28;20462;-58
2021/11/01 06:31:09;;;;;;;5.33;2.83;;;8.70;99.90;;;;;;5056563;28;20466;-60
2021/11/01 06:39:24;;;;;;;5.97;2.83;;;8.70;99.90;;;;;;5059483;28;20480;-58
2021/11/01 06:42:09;;;;;;;10.53;3.57;;;8.70;99.90;;;;;;5059837;28;20864;-58
2021/11/01 06:50:11;;;;;;;6.03;3.33;;;8.70;99.90;;;;;;5059318;28;20606;-58
2021/11/01 06:53:01;;;;;;;6.23;3.00;;;8.70;99.90;;;;;;5059180;28;20465;-58
2021/11/01 06:58:32;;;;;;;5.47;2.97;;;8.60;99.90;;;;;;5058673;28;20433;-55
2021/11/01 07:15:04;;;;;;;8.30;2.60;;;8.60;99.90;;;;;;5058793;28;20754;-58
2021/11/01 07:17:47;;;;;;;14.93;3.43;;;8.70;99.90;;;;;;5045556;28;20884;-57
2021/11/01 07:29:50;;;;;;;8.00;2.97;;;8.80;99.90;;;;;;5049879;28;21121;-59
2021/11/01 08:29:43;;;;;;;9.83;4.97;;;11.10;5.50;;;;;;5058097;28;20928;-61
2021/11/01 08:35:51;;;;;;;5.90;3.73;;;11.30;1.00;;;;;;5056987;28;20445;-62
2021/11/01 08:38:35;;;;;;;9.33;4.03;;;11.50;1.00;;;;;;5056898;28;20431;-61
2021/11/01 08:41:28;;;;;;;7.27;2.80;;;11.60;1.00;;;;;;5056746;28;20528;-60
2021/11/01 09:03:33;;;;;;;8.50;2.93;;;12.40;1.00;;;;;;5057161;28;20435;-58
2021/11/01 09:06:14;;;;;;;6.10;2.40;;;12.00;1.00;;;;;;5056972;28;20468;-59
2021/11/01 09:19:58;;;;;;;5.47;2.53;;;11.80;1.00;;;;;;5047671;28;20444;-57
2021/11/01 09:25:17;;;;;;;7.03;2.60;;;11.90;1.00;;;;;;5048656;28;21158;-59
2021/11/01 09:27:58;;;;;;;10.03;3.10;;;12.20;1.00;;;;;;5051805;28;20450;-57
2021/11/01 09:39:28;;;;;;;14.13;3.47;;;12.80;1.00;;;;;;5053956;28;20430;-58
2021/11/01 09:41:59;;;;;;;12.93;3.90;;;12.80;1.00;;;;;;5057009;28;20895;-58
2021/11/01 09:44:28;;;;;;;5.07;2.57;;;12.80;1.00;;;;;;5056925;28;20501;-59
2021/11/01 09:47:03;;;;;;;9.20;4.10;;;12.50;1.00;;;;;;5055411;28;20536;-58
2021/11/01 09:49:49;;;;;;;4.80;2.40;;;12.20;1.00;;;;;;5041226;28;20494;-58
2021/11/01 09:52:20;;;;;;;5.70;3.03;;;12.20;1.00;;;;;;5051238;28;20881;-60
2021/11/01 09:54:56;;;;;;;5.30;2.83;;;12.30;1.00;;;;;;5056633;28;20437;-60
2021/11/01 09:57:34;;;;;;;10.17;3.20;;;12.50;1.00;;;;;;5052418;28;20543;-60
2021/11/01 10:00:04;;;;;;;4.50;2.30;;;12.70;1.00;;;;;;5050838;28;20445;-61
2021/11/01 10:02:45;;;;;;;4.13;2.63;;;12.60;1.00;;;;;;5061690;28;20466;-60
2021/11/01 10:05:28;;;;;;;8.30;2.63;;;12.50;1.00;;;;;;5050659;28;20549;-61
2021/11/01 10:07:55;;;;;;;6.60;3.10;;;12.40;1.00;;;;;;5046751;28;20459;-61
2021/11/01 10:10:30;;;;;;;5.97;2.40;;;12.30;1.00;;;;;;5039973;28;20490;-57
2021/11/01 10:13:03;;;;;;;4.80;2.40;;;12.20;1.00;;;;;;5059059;28;20527;-55
2021/11/01 10:18:20;;;;;;;6.43;2.80;;;12.60;1.00;;;;;;5055366;28;20437;-59
2021/11/01 10:20:53;;;;;;;6.60;2.63;;;12.50;1.00;;;;;;5050886;28;20454;-58
2021/11/01 10:23:30;;;;;;;10.80;3.70;;;12.60;1.00;;;;;;5060129;28;20908;-59
2021/11/01 10:26:15;;;;;;;7.00;3.37;;;12.60;1.00;;;;;;5060091;28;20442;-56
2021/11/01 10:28:50;;;;;;;5.13;2.50;;;12.70;1.00;;;;;;5059834;28;20546;-57
2021/11/01 10:31:23;;;;;;;7.07;2.80;;;13.00;1.00;;;;;;5059543;28;20489;-57
2021/11/01 10:34:04;;;;;;;5.67;3.13;;;13.20;1.00;;;;;;5079491;28;20461;-59
2021/11/01 10:36:34;;;;;;;5.40;2.60;;;13.00;1.00;;;;;;5062507;28;20462;-60
2021/11/01 10:39:10;;;;;;;6.80;2.47;;;12.90;1.00;;;;;;5059537;28;20462;-59
2021/11/01 10:41:47;;;;;;;5.30;2.40;;;12.80;1.00;;;;;;5059089;28;20476;-59
2021/11/01 11:12:58;;;;;;;5.17;2.30;;;14.30;1.00;;;;;;5052836;28;20830;-55
2021/11/01 11:15:36;;;;;;;5.03;2.67;;;14.20;1.00;;;;;;5056835;28;20497;-57
2021/11/01 11:18:34;;;;;;;6.30;3.13;;;14.30;1.00;;;;;;5057321;28;20465;-56
2021/11/01 11:26:54;;;;;;;6.10;3.27;;;15.60;1.00;;;;;;5055462;28;20491;-58
2021/11/01 11:38:27;;;;;;;3.97;2.27;;;16.50;99.90;;;;;;5056794;28;20615;-58
2021/11/01 11:44:06;;;;;;;7.20;3.83;;;15.50;99.90;;;;;;5022102;28;20930;-57
2021/11/01 11:49:43;;;;;;;3.57;2.87;;;15.10;99.90;;;;;;5057653;28;20919;-57
2021/11/01 11:52:29;;;;;;;5.40;2.67;;;15.40;99.90;;;;;;5057839;28;20811;-57
2021/11/01 11:55:02;;;;;;;4.57;2.30;;;15.40;99.90;;;;;;5043504;28;20478;-57
2021/11/01 11:57:40;;;;;;;3.93;2.40;;;15.60;99.90;;;;;;5057336;28;20462;-57
2021/11/01 12:00:18;;;;;;;5.33;3.20;;;15.30;99.90;;;;;;5058183;28;20743;-57
2021/11/01 12:02:54;;;;;;;3.60;2.50;;;15.00;99.90;;;;;;5054936;28;20903;-57
2021/11/01 12:05:31;;;;;;;4.63;2.43;;;14.60;99.90;;;;;;5052824;28;20489;-58
2021/11/01 12:08:18;;;;;;;3.17;2.60;;;14.20;99.90;;;;;;5057309;28;20485;-57
2021/11/01 12:11:13;;;;;;;4.77;3.27;;;13.80;99.90;;;;;;5045530;28;20513;-53
2021/11/01 12:17:06;;;;;;;2.20;2.00;;;14.00;99.90;;;;;;5001095;28;20440;-53
2021/11/01 12:19:36;;;;;;;3.90;2.33;;;14.40;99.90;;;;;;4996209;28;20465;-54
2021/11/01 12:22:28;;;;;;;5.53;2.93;;;14.60;99.90;;;;;;4995984;28;20465;-57
2021/11/01 12:25:22;;;;;;;6.23;3.03;;;14.80;99.90;;;;;;4996035;28;20496;-54
2021/11/01 12:28:05;;;;;;;6.13;2.43;;;14.60;99.90;;;;;;4995689;28;20738;-54
2021/11/01 12:30:49;;;;;;;7.07;3.60;;;14.00;99.90;;;;;;4990226;28;20500;-55
2021/11/01 12:33:18;;;;;;;4.17;2.30;;;14.20;99.90;;;;;;4995639;28;20464;-57
2021/11/01 12:35:59;;;;;;;7.83;2.97;;;14.30;99.90;;;;;;4995772;28;20453;-54
2021/11/01 12:38:42;;;;;;;4.13;2.67;;;14.20;99.90;;;;;;5038481;28;20512;-57
2021/11/01 12:41:29;;;;;;;3.07;2.03;;;14.40;99.90;;;;;;5057741;28;20464;-57
2021/11/01 12:49:52;;;;;;;6.83;2.50;;;14.50;99.90;;;;;;5040023;28;20424;-56
2021/11/01 12:58:03;;;;;;;3.63;2.40;;;13.80;99.90;;;;;;5056886;28;20592;-54
2021/11/01 13:00:44;;;;;;;3.93;2.40;;;14.00;99.90;;;;;;5059548;28;20580;-56
2021/11/01 13:03:42;;;;;;;4.30;2.30;;;14.10;99.90;;;;;;5057295;28;20473;-53
2021/11/01 13:06:22;;;;;;;4.23;2.43;;;14.40;99.90;;;;;;5050043;28;20479;-48
2021/11/01 13:08:50;;;;;;;4.63;2.07;;;14.60;99.90;;;;;;5044949;28;20467;-54
2021/11/01 13:11:38;;;;;;;5.60;1.90;;;14.80;99.90;;;;;;5050901;28;20490;-53
2021/11/01 13:14:42;;;;;;;3.27;2.17;;;14.80;99.90;;;;;;5056263;28;20462;-50
2021/11/01 13:20:11;;;;;;;5.00;2.47;;;14.70;99.90;;;;;;5047380;28;20918;-57
2021/11/01 13:22:55;;;;;;;4.73;2.23;;;14.60;99.90;;;;;;5056843;28;20462;-56
2021/11/01 13:25:29;;;;;;;6.37;2.40;;;14.50;99.90;;;;;;5056798;28;20458;-55
2021/11/01 13:36:41;;;;;;;4.60;2.30;;;14.10;99.90;;;;;;5022324;28;20468;-56
2021/11/01 13:39:10;;;;;;;2.77;1.60;;;14.10;99.90;;;;;;5052516;28;20897;-52
2021/11/01 13:41:46;;;;;;;4.00;2.30;;;14.10;99.90;;;;;;5053518;28;20548;-55
2021/11/01 13:44:21;;;;;;;4.60;2.20;;;14.00;99.90;;;;;;5044462;28;20493;-55
2021/11/01 13:46:51;;;;;;;2.40;2.20;;;14.00;99.90;;;;;;5050337;28;20459;-54
2021/11/01 13:49:22;;;;;;;4.90;2.50;;;14.00;99.90;;;;;;5052840;28;20463;-56
2021/11/01 13:51:54;;;;;;;3.70;2.20;;;13.90;99.90;;;;;;5056144;28;20513;-52
2021/11/01 13:54:34;;;;;;;3.30;2.10;;;13.90;99.90;;;;;;5054835;28;20445;-52
2021/11/01 13:57:05;;;;;;;4.10;2.33;;;13.70;99.90;;;;;;5056214;28;20868;-50
2021/11/01 13:59:44;;;;;;;3.87;2.30;;;13.60;99.90;;;;;;5039500;28;20761;-49
2021/11/01 14:13:20;;;;;;;4.70;2.60;;;13.50;99.90;;;;;;5076042;28;20457;-53
2021/11/01 14:18:52;;;;;;;3.90;2.17;;;13.50;99.90;;;;;;5076347;28;20530;-52
2021/11/01 14:27:22;;;;;;;4.83;2.00;;;13.00;99.90;;;;;;5056344;28;20437;-57
2021/11/01 15:14:43;;;;;;;5.07;2.50;;;12.30;99.90;;;;;;5048934;28;20441;-53
2021/11/01 15:17:31;;;;;;;5.30;2.47;;;12.40;99.90;;;;;;5050455;28;20785;-56
2021/11/01 15:22:56;;;;;;;7.70;2.40;;;12.30;99.90;;;;;;5045785;28;20430;-57
2021/11/01 15:31:59;;;;;;;5.00;2.33;;;12.20;99.90;;;;;;5041698;28;20948;-54
2021/11/01 15:40:40;;;;;;;4.20;2.40;;;12.10;99.90;;;;;;5049385;28;20466;-56
2021/11/01 16:19:16;;;;;;;6.20;3.17;;;11.50;99.90;;;;;;5029557;28;20443;-54
2021/11/01 16:21:47;;;;;;;7.67;3.10;;;11.40;99.90;;;;;;5058918;28;20465;-56
2021/11/01 16:24:14;;;;;;;3.63;2.50;;;11.40;99.90;;;;;;5051525;28;20466;-57
2021/11/01 16:26:45;;;;;;;10.10;3.30;;;11.30;99.90;;;;;;5055456;28;20528;-57
2021/11/01 16:29:18;;;;;;;5.50;3.20;;;11.20;99.90;;;;;;5056323;28;20469;-55
2021/11/01 16:31:49;;;;;;;5.47;3.00;;;11.20;99.90;;;;;;5052808;28;20632;-55
2021/11/01 16:34:25;;;;;;;5.63;2.67;;;11.20;99.90;;;;;;5049918;28;20466;-53
2021/11/01 16:39:41;;;;;;;4.13;2.57;;;11.10;99.90;;;;;;5049961;28;20881;-55
2021/11/01 16:42:11;;;;;;;9.00;3.37;;;11.00;1.00;;;;;;5049557;28;20469;-49
2021/11/01 16:44:40;;;;;;;4.00;2.47;;;10.90;1.00;;;;;;5053601;28;20487;-52
2021/11/01 16:47:11;;;;;;;7.13;3.63;;;10.80;1.00;;;;;;5045925;28;20497;-54
2021/11/01 16:49:42;;;;;;;5.03;3.70;;;10.70;1.00;;;;;;5044096;28;20699;-50
2021/11/01 16:52:15;;;;;;;8.80;4.10;;;10.60;1.00;;;;;;5046541;28;20473;-51
2021/11/01 16:54:45;;;;;;;7.43;4.67;;;10.60;1.00;;;;;;5046962;28;20463;-52
2021/11/01 16:57:17;;;;;;;4.97;4.53;;;10.50;1.00;;;;;;5046577;28;20498;-50
2021/11/01 16:59:53;;;;;;;7.40;3.70;;;10.40;1.00;;;;;;5047251;28;20437;-52
2021/11/01 17:05:34;;;;;;;6.13;3.57;;;10.40;1.00;;;;;;5036214;28;20452;-53
2021/11/01 17:22:24;;;;;;;6.10;2.60;;;10.30;1.00;;;;;;5042379;28;20419;-56
2021/11/01 17:24:57;;;;;;;9.90;3.33;;;10.30;1.00;;;;;;5047140;28;20880;-48
2021/11/01 17:36:10;;;;;;;5.37;3.17;;;10.00;1.00;;;;;;5044975;28;20420;-51
2021/11/01 18:40:14;;;;;;;11.90;6.50;;;9.40;1.00;;;;;;5049796;28;20441;-54
2021/11/01 18:51:02;;;;;;;9.37;6.20;;;9.30;1.00;;;;;;5049710;28;20471;-52
2021/11/01 18:53:35;;;;;;;8.20;2.57;;;9.40;1.00;;;;;;5049523;28;20458;-54
2021/11/01 18:56:06;;;;;;;6.10;3.97;;;9.40;1.00;;;;;;5049795;28;20429;-47
2021/11/01 18:58:36;;;;;;;9.50;2.60;;;9.50;1.00;;;;;;5049404;28;20459;-56
2021/11/01 19:01:05;;;;;;;6.70;2.97;;;9.60;1.00;;;;;;5051324;28;20470;-55
2021/11/01 19:03:37;;;;;;;3.47;2.80;;;9.60;1.00;;;;;;5048087;28;20892;-54
2021/11/01 19:06:18;;;;;;;6.47;3.23;;;9.70;1.00;;;;;;5052431;28;20482;-52
2021/11/01 19:08:50;;;;;;;5.97;2.67;;;9.70;1.00;;;;;;5057149;28;20472;-54
2021/11/01 20:04:52;;;;;;;6.87;2.40;;;9.40;1.00;;;;;;5041978;28;20454;-54
2021/11/01 20:10:27;;;;;;;6.97;3.10;;;9.30;1.00;;;;;;5006882;28;20414;-55
2021/11/01 20:16:05;;;;;;;9.70;4.20;;;9.40;1.00;;;;;;5033765;28;20724;-56
2021/11/01 21:26:01;;;;;;;5.30;2.77;;;8.70;1.00;;;;;;5041168;28;20481;-56
2021/11/01 21:28:29;;;;;;;6.40;3.40;;;8.60;1.00;;;;;;5040993;28;20458;-57
2021/11/01 21:30:59;;;;;;;6.50;3.17;;;8.60;3.90;;;;;;5046997;28;20512;-58
2021/11/01 21:33:31;;;;;;;11.17;4.27;;;8.50;19.30;;;;;;5046902;28;20490;-58
2021/11/01 21:36:04;;;;;;;6.73;3.63;;;8.40;66.50;;;;;;5045143;28;20581;-56
2021/11/01 21:38:36;;;;;;;6.83;4.50;;;8.30;99.90;;;;;;5041025;28;20466;-58
2021/11/01 21:41:07;;;;;;;6.30;3.40;;;8.30;99.90;;;;;;5046224;28;20466;-58
2021/11/01 21:43:36;;;;;;;7.90;3.80;;;8.20;99.90;;;;;;5036529;28;20462;-58
2021/11/01 21:46:03;;;;;;;5.63;3.10;;;8.10;99.90;;;;;;5038874;28;20429;-58
2021/11/01 21:48:30;;;;;;;7.10;3.67;;;8.10;99.90;;;;;;5052474;28;20549;-57
2021/11/01 21:50:59;;;;;;;6.63;3.70;;;8.10;99.90;;;;;;5048442;28;20474;-58
2021/11/01 21:53:29;;;;;;;8.93;3.60;;;8.10;99.90;;;;;;5051155;28;20490;-54
2021/11/01 21:56:02;;;;;;;6.90;3.60;;;8.00;99.90;;;;;;5047654;28;20470;-57
2021/11/01 21:58:52;;;;;;;6.60;4.03;;;8.00;1.00;;;;;;5046318;28;20524;-58
2021/11/01 22:01:41;;;;;;;8.40;3.70;;;8.00;1.00;;;;;;5050534;28;20498;-56
2021/11/01 22:18:30;;;;;;;8.33;4.67;;;8.30;99.90;;;;;;5050033;28;20476;-57
2021/11/01 22:21:01;;;;;;;6.70;3.03;;;8.30;99.90;;;;;;5055721;28;20457;-58
2021/11/01 22:23:38;;;;;;;13.77;3.63;;;8.30;99.90;;;;;;5060044;28;20458;-59
2021/11/01 22:26:15;;;;;;;4.43;3.00;;;8.30;99.90;;;;;;5049929;28;20489;-58
2021/11/01 22:34:21;;;;;;;5.80;3.07;;;8.20;99.90;;;;;;5049963;28;20491;-57
2021/11/01 22:39:41;;;;;;;3.80;2.67;;;8.10;99.90;;;;;;5050082;28;20426;-58
2021/11/01 22:42:33;;;;;;;4.80;3.37;;;8.00;1.00;;;;;;5050162;28;20461;-58
2021/11/01 22:45:15;;;;;;;6.50;3.80;;;8.00;1.00;;;;;;5050295;28;20462;-57
2021/11/01 22:56:16;;;;;;;6.23;3.30;;;7.90;99.90;;;;;;5018633;28;20405;-58
2021/11/01 22:58:44;;;;;;;6.83;3.90;;;8.00;99.90;;;;;;5048374;28;20457;-57
2021/11/01 23:01:18;;;;;;;10.37;3.60;;;8.00;99.90;;;;;;5052740;28;20458;-58
2021/11/01 23:03:56;;;;;;;8.93;3.30;;;8.00;99.90;;;;;;5047601;28;20445;-59
2021/11/01 23:31:32;;;;;;;12.80;6.73;;;8.20;1.00;;;;;;5047141;28;20459;-58
2021/11/01 23:34:08;;;;;;;11.00;6.33;;;8.20;1.50;;;;;;5047954;28;20450;-58
2021/11/01 23:36:37;;;;;;;9.27;3.53;;;8.20;81.90;;;;;;5049063;28;20450;-59
2021/11/01 23:39:10;;;;;;;11.77;5.53;;;8.20;99.90;;;;;;5049084;28;20893;-59
2021/11/01 23:41:38;;;;;;;6.70;3.50;;;8.30;6.50;;;;;;5048858;28;21025;-58
2021/11/01 23:44:06;;;;;;;16.20;5.60;;;8.40;1.00;;;;;;5048619;28;20800;-56
2021/11/01 23:46:33;;;;;;;7.20;4.60;;;8.50;1.00;;;;;;5047048;28;20508;-59
2021/11/01 23:49:01;;;;;;;13.20;5.70;;;8.50;1.00;;;;;;5047914;28;20521;-57
2021/11/01 23:51:33;;;;;;;10.43;6.10;;;8.50;1.00;;;;;;5048574;28;20446;-56
2021/11/01 23:54:24;;;;;;;8.47;4.10;;;8.60;1.00;;;;;;5047665;28;20518;-58
2021/11/01 23:56:54;;;;;;;8.03;4.70;;;8.60;1.00;;;;;;5050451;28;20565;-59
2021/11/01 23:59:21;;;;;;;8.80;3.70;;;8.60;99.90;;;;;;5047655;28;20463;-58
